Time;durP1;ratioP1;P1;durP2;ratioP2;P2;SDS_P1;SDS_P2;PMS_P1;PMS_P2;Temp;Humidity;BMP_temperature;BMP_pressure;BME280_temperature;BME280_humidity;BME280_pressure;Samples;Min_cycle;Max_cycle;Signal;HPM_P1;HPM_P2
2021/06/23 00:02:16;;;;;;;18.35;14.73;;;13.30;99.90;;;;;;4996590;28;20050;-79
2021/06/23 00:04:44;;;;;;;17.58;13.68;;;13.20;99.90;;;;;;5017838;28;20046;-79
2021/06/23 00:07:11;;;;;;;20.77;13.85;;;13.20;99.90;;;;;;4996313;28;20050;-80
2021/06/23 00:09:38;;;;;;;23.48;14.00;;;13.30;99.90;;;;;;5014283;28;20057;-80
2021/06/23 00:12:05;;;;;;;19.77;13.05;;;13.20;99.90;;;;;;5014593;28;20443;-81
2021/06/23 00:14:32;;;;;;;17.48;13.68;;;13.00;99.90;;;;;;4999216;28;20388;-80
2021/06/23 00:16:59;;;;;;;16.33;12.65;;;13.00;99.90;;;;;;4998083;28;20045;-77
2021/06/23 00:19:26;;;;;;;17.35;13.85;;;13.10;99.90;;;;;;5019767;28;20353;-82
2021/06/23 00:21:53;;;;;;;17.52;13.48;;;13.10;99.90;;;;;;5008405;28;20038;-80
2021/06/23 00:24:19;;;;;;;21.52;14.20;;;13.00;99.90;;;;;;4984348;28;20132;-80
2021/06/23 00:26:46;;;;;;;16.73;14.10;;;13.00;99.90;;;;;;5001054;28;20081;-82
2021/06/23 00:29:13;;;;;;;25.55;15.15;;;13.00;99.90;;;;;;4999769;28;20532;-81
2021/06/23 00:31:40;;;;;;;22.05;15.57;;;13.00;99.90;;;;;;5000226;28;20052;-80
2021/06/23 00:34:11;;;;;;;21.25;14.57;;;13.00;99.90;;;;;;4996784;28;20100;-79
2021/06/23 00:36:50;;;;;;;19.63;15.40;;;12.90;99.90;;;;;;4981776;28;20066;-79
2021/06/23 00:39:17;;;;;;;22.27;13.60;;;13.00;99.90;;;;;;4975989;28;20199;-80
2021/06/23 00:41:44;;;;;;;23.42;14.73;;;13.10;99.90;;;;;;4975357;28;20057;-79
2021/06/23 00:44:13;;;;;;;20.88;14.05;;;13.10;99.90;;;;;;4995634;28;20106;-80
2021/06/23 00:46:43;;;;;;;16.25;14.57;;;13.20;99.90;;;;;;4979056;28;20050;-77
2021/06/23 00:49:11;;;;;;;16.17;14.48;;;13.00;99.90;;;;;;5027606;28;20070;-80
2021/06/23 00:51:51;;;;;;;19.38;15.05;;;13.00;99.90;;;;;;5005318;28;20050;-81
2021/06/23 00:54:47;;;;;;;19.00;14.38;;;13.00;99.90;;;;;;5000667;28;20129;-80
2021/06/23 00:57:15;;;;;;;20.30;15.10;;;12.70;99.90;;;;;;4997031;28;20045;-79
2021/06/23 00:59:44;;;;;;;26.02;14.88;;;12.70;99.90;;;;;;4998256;28;20050;-82
2021/06/23 01:02:13;;;;;;;22.10;15.20;;;12.70;99.90;;;;;;4996466;28;20058;-82
2021/06/23 01:04:40;;;;;;;17.48;14.82;;;12.80;99.90;;;;;;4997729;28;20136;-81
2021/06/23 01:07:07;;;;;;;16.70;14.05;;;12.80;99.90;;;;;;4994458;28;20061;-81
2021/06/23 01:09:34;;;;;;;20.63;16.05;;;12.90;99.90;;;;;;4978593;28;20414;-79
2021/06/23 01:12:23;;;;;;;17.42;15.50;;;13.00;99.90;;;;;;5012136;28;20041;-78
2021/06/23 01:14:53;;;;;;;19.48;15.90;;;13.00;99.90;;;;;;4995336;28;20145;-79
2021/06/23 01:17:21;;;;;;;26.23;16.30;;;13.00;99.90;;;;;;4988219;28;20330;-81
2021/06/23 01:19:51;;;;;;;26.17;15.02;;;12.90;99.90;;;;;;5011997;28;20060;-80
2021/06/23 01:22:18;;;;;;;19.92;16.63;;;12.90;99.90;;;;;;4987618;28;20077;-79
2021/06/23 01:24:46;;;;;;;20.02;15.30;;;13.00;99.90;;;;;;4980995;28;20056;-81
2021/06/23 01:27:13;;;;;;;18.90;15.88;;;13.00;99.90;;;;;;4995167;28;20104;-80
2021/06/23 01:29:40;;;;;;;22.50;16.10;;;12.90;99.90;;;;;;4998185;28;20076;-81
2021/06/23 01:32:22;;;;;;;22.90;16.40;;;12.80;99.90;;;;;;4982015;28;20725;-81
2021/06/23 01:34:49;;;;;;;25.38;15.93;;;12.90;99.90;;;;;;5013261;28;20080;-81
2021/06/23 01:37:16;;;;;;;21.58;16.48;;;12.80;99.90;;;;;;4974297;28;20042;-79
2021/06/23 01:39:42;;;;;;;20.80;15.75;;;12.80;99.90;;;;;;4959967;28;20058;-81
2021/06/23 01:42:10;;;;;;;22.38;16.13;;;12.70;99.90;;;;;;5005944;28;20572;-80
2021/06/23 01:44:37;;;;;;;18.38;16.33;;;12.70;99.90;;;;;;5005075;28;20048;-81
2021/06/23 01:47:04;;;;;;;21.05;16.17;;;12.70;99.90;;;;;;5005214;28;20057;-81
2021/06/23 01:49:32;;;;;;;20.63;16.67;;;12.80;99.90;;;;;;4994460;28;20046;-79
2021/06/23 01:51:59;;;;;;;27.52;16.38;;;12.80;99.90;;;;;;4986851;28;20046;-79
2021/06/23 01:54:26;;;;;;;21.92;16.90;;;12.70;99.90;;;;;;5012203;28;20662;-79
2021/06/23 01:56:53;;;;;;;25.27;17.67;;;12.80;99.90;;;;;;4969808;28;20568;-81
2021/06/23 01:59:21;;;;;;;18.33;15.68;;;12.90;99.90;;;;;;4978418;28;20109;-80
2021/06/23 02:02:26;;;;;;;20.25;17.15;;;12.80;99.90;;;;;;4999058;28;20105;-79
2021/06/23 02:05:21;;;;;;;28.15;16.70;;;12.70;99.90;;;;;;4994212;28;20049;-80
2021/06/23 02:07:58;;;;;;;24.17;16.73;;;12.50;99.90;;;;;;4989457;28;20778;-80
2021/06/23 02:10:49;;;;;;;16.83;15.05;;;12.40;99.90;;;;;;5009560;28;20060;-81
2021/06/23 02:13:58;;;;;;;25.40;16.52;;;12.40;99.90;;;;;;4995630;28;20096;-81
2021/06/23 02:16:37;;;;;;;26.23;15.50;;;12.50;99.90;;;;;;5010860;28;20119;-81
2021/06/23 02:19:09;;;;;;;20.48;16.42;;;12.40;99.90;;;;;;4993497;28;20083;-82
2021/06/23 02:21:55;;;;;;;20.00;15.20;;;12.50;99.90;;;;;;5008972;28;20060;-81
2021/06/23 02:24:23;;;;;;;21.50;17.73;;;12.50;99.90;;;;;;4983104;28;20050;-79
2021/06/23 02:26:57;;;;;;;21.92;16.67;;;12.70;99.90;;;;;;4976671;28;20846;-81
2021/06/23 02:29:26;;;;;;;23.20;16.08;;;12.80;99.90;;;;;;4959277;28;20038;-81
2021/06/23 02:31:59;;;;;;;17.25;14.68;;;12.70;99.90;;;;;;5007506;28;20074;-80
2021/06/23 02:34:29;;;;;;;23.48;16.15;;;12.80;99.90;;;;;;4984356;28;20077;-81
2021/06/23 02:37:24;;;;;;;20.23;16.95;;;12.80;99.90;;;;;;4962646;28;20051;-79
2021/06/23 02:39:52;;;;;;;22.85;15.85;;;12.70;99.90;;;;;;4959121;28;20248;-80
2021/06/23 02:42:19;;;;;;;25.67;16.45;;;12.60;99.90;;;;;;4994080;28;20112;-80
2021/06/23 02:44:47;;;;;;;19.98;17.05;;;12.50;99.90;;;;;;4999794;28;20038;-82
2021/06/23 02:47:19;;;;;;;22.58;16.50;;;12.60;99.90;;;;;;5008258;28;20104;-79
2021/06/23 02:50:00;;;;;;;20.75;17.27;;;12.50;99.90;;;;;;4977137;28;20104;-81
2021/06/23 02:52:30;;;;;;;22.27;16.42;;;12.50;99.90;;;;;;4992141;28;20042;-81
2021/06/23 02:54:57;;;;;;;22.40;16.08;;;12.60;99.90;;;;;;4994719;28;20038;-81
2021/06/23 02:57:32;;;;;;;19.13;17.02;;;12.80;99.90;;;;;;4988449;28;20312;-81
2021/06/23 03:00:00;;;;;;;25.67;17.73;;;12.70;99.90;;;;;;4973979;28;20528;-82
2021/06/23 03:02:32;;;;;;;23.40;18.10;;;12.70;99.90;;;;;;5004273;28;20107;-80
2021/06/23 03:04:59;;;;;;;23.48;17.50;;;12.70;99.90;;;;;;5019742;28;20046;-79
2021/06/23 03:07:27;;;;;;;22.52;16.65;;;12.80;99.90;;;;;;4997217;28;20077;-80
2021/06/23 03:10:10;;;;;;;20.02;17.35;;;12.70;99.90;;;;;;4974474;28;20046;-79
2021/06/23 03:12:56;;;;;;;22.23;16.50;;;12.70;99.90;;;;;;5015223;28;20049;-81
2021/06/23 03:15:41;;;;;;;20.88;16.77;;;12.80;99.90;;;;;;4998860;28;20041;-80
2021/06/23 03:18:22;;;;;;;22.05;15.98;;;12.90;99.90;;;;;;4995560;28;20042;-81
2021/06/23 03:20:50;;;;;;;24.73;18.38;;;12.80;99.90;;;;;;4997870;28;20045;-82
2021/06/23 03:23:17;;;;;;;23.83;16.95;;;12.90;99.90;;;;;;4992400;28;20054;-81
2021/06/23 03:25:44;;;;;;;30.52;18.00;;;12.80;99.90;;;;;;4995220;28;20076;-80
2021/06/23 03:28:11;;;;;;;26.60;16.38;;;12.80;99.90;;;;;;4991091;28;20049;-80
2021/06/23 03:30:43;;;;;;;21.95;16.13;;;12.60;99.90;;;;;;4971379;28;20046;-80
2021/06/23 03:33:12;;;;;;;25.67;17.60;;;12.60;99.90;;;;;;4956387;28;20136;-79
2021/06/23 03:36:11;;;;;;;21.08;16.13;;;12.60;99.90;;;;;;4962766;28;20050;-79
2021/06/23 03:38:41;;;;;;;23.33;16.08;;;12.40;99.90;;;;;;4998245;28;20116;-80
2021/06/23 03:41:10;;;;;;;19.63;15.63;;;12.40;99.90;;;;;;4991223;28;20050;-79
2021/06/23 03:43:38;;;;;;;22.27;15.90;;;12.40;99.90;;;;;;4994518;28;20053;-79
2021/06/23 03:46:05;;;;;;;19.42;16.02;;;12.40;99.90;;;;;;5011990;28;20084;-81
2021/06/23 03:48:32;;;;;;;22.05;16.27;;;12.50;99.90;;;;;;5011623;28;20092;-80
2021/06/23 03:51:06;;;;;;;27.38;16.00;;;12.40;99.90;;;;;;5019818;28;20503;-81
2021/06/23 03:53:33;;;;;;;18.75;15.45;;;12.50;99.90;;;;;;4985790;28;20544;-80
2021/06/23 03:56:04;;;;;;;21.73;16.83;;;12.50;99.90;;;;;;4992260;28;20489;-81
2021/06/23 03:58:31;;;;;;;22.13;15.80;;;12.60;99.90;;;;;;4977007;28;20050;-82
2021/06/23 04:00:59;;;;;;;29.75;15.77;;;12.60;99.90;;;;;;4997518;28;20042;-81
2021/06/23 04:03:44;;;;;;;;;;;12.60;99.90;;;;;;5008389;28;20193;-82
2021/06/23 04:06:41;;;;;;;18.05;15.00;;;12.40;99.90;;;;;;4990795;28;20496;-80
2021/06/23 04:09:11;;;;;;;25.60;16.52;;;12.40;99.90;;;;;;4992590;28;20050;-80
2021/06/23 04:11:43;;;;;;;25.75;15.55;;;12.50;99.90;;;;;;4999886;28;20049;-79
2021/06/23 04:14:10;;;;;;;24.67;15.95;;;12.60;99.90;;;;;;4996565;28;20054;-80
2021/06/23 04:16:37;;;;;;;16.98;15.02;;;12.70;99.90;;;;;;4982252;28;20047;-80
2021/06/23 04:19:04;;;;;;;21.55;14.88;;;12.80;99.90;;;;;;5004900;28;20097;-81
2021/06/23 04:21:34;;;;;;;21.73;15.05;;;12.80;99.90;;;;;;4983568;28;20046;-81
2021/06/23 04:24:07;;;;;;;21.35;14.85;;;12.70;99.90;;;;;;5008623;28;20153;-81
2021/06/23 04:26:40;;;;;;;22.48;15.68;;;12.80;99.90;;;;;;4975931;28;20046;-80
2021/06/23 04:29:08;;;;;;;24.70;15.63;;;12.90;99.90;;;;;;4992301;28;20073;-82
2021/06/23 04:31:36;;;;;;;16.90;15.15;;;13.00;99.90;;;;;;4996351;28;20261;-81
2021/06/23 04:34:14;;;;;;;17.50;15.05;;;12.90;99.90;;;;;;4996967;28;20045;-79
2021/06/23 04:36:44;;;;;;;17.42;14.23;;;12.80;99.90;;;;;;5010487;28;20045;-81
2021/06/23 04:39:11;;;;;;;18.17;15.25;;;12.80;99.90;;;;;;4991771;28;20051;-79
2021/06/23 04:41:53;;;;;;;22.23;15.23;;;12.80;99.90;;;;;;4990807;28;20114;-80
2021/06/23 04:44:20;;;;;;;18.00;14.15;;;12.90;99.90;;;;;;5007492;28;20054;-80
2021/06/23 04:46:47;;;;;;;18.60;15.05;;;12.70;99.90;;;;;;5012111;28;20042;-82
2021/06/23 04:49:14;;;;;;;25.63;14.88;;;12.70;99.90;;;;;;5018399;28;20117;-82
2021/06/23 04:52:01;;;;;;;23.13;14.20;;;12.70;99.90;;;;;;5014214;28;20045;-81
2021/06/23 04:54:28;;;;;;;20.70;14.23;;;12.50;99.90;;;;;;5011668;28;20053;-79
2021/06/23 04:56:55;;;;;;;16.05;14.35;;;12.60;99.90;;;;;;4993963;28;20124;-82
2021/06/23 04:59:22;;;;;;;20.77;14.35;;;12.60;99.90;;;;;;5013694;28;20061;-81
2021/06/23 05:01:49;;;;;;;16.45;14.75;;;12.60;99.90;;;;;;4981818;28;20065;-80
2021/06/23 05:04:16;;;;;;;17.80;15.80;;;12.80;99.90;;;;;;5000080;28;20144;-82
2021/06/23 05:06:43;;;;;;;20.45;14.60;;;12.90;99.90;;;;;;4997472;28;20065;-79
2021/06/23 05:09:10;;;;;;;18.77;14.23;;;12.90;99.90;;;;;;4996221;28;20116;-79
2021/06/23 05:11:36;;;;;;;15.45;13.90;;;12.90;99.90;;;;;;4984737;28;20050;-81
2021/06/23 05:14:06;;;;;;;21.83;14.20;;;12.90;99.90;;;;;;5020480;28;20057;-78
2021/06/23 05:16:35;;;;;;;17.80;14.95;;;12.90;99.90;;;;;;5023793;28;20057;-80
2021/06/23 05:19:03;;;;;;;15.15;13.63;;;12.90;99.90;;;;;;5025736;28;20046;-80
2021/06/23 05:21:36;;;;;;;15.75;14.20;;;12.80;99.90;;;;;;4997944;28;20058;-81
2021/06/23 05:24:03;;;;;;;18.98;14.93;;;12.80;99.90;;;;;;5009778;28;20058;-82
2021/06/23 05:26:30;;;;;;;16.25;13.50;;;12.80;99.90;;;;;;4995899;28;20107;-81
2021/06/23 05:28:57;;;;;;;22.52;15.23;;;12.90;99.90;;;;;;4980037;28;20048;-81
2021/06/23 05:31:24;;;;;;;17.80;14.25;;;12.70;99.90;;;;;;4995529;28;20054;-80
2021/06/23 05:33:51;;;;;;;17.90;14.48;;;12.70;99.90;;;;;;4977677;28;20077;-81
2021/06/23 05:36:19;;;;;;;16.50;14.88;;;12.60;99.90;;;;;;4988579;28;20058;-79
2021/06/23 05:38:47;;;;;;;22.92;14.73;;;12.50;99.90;;;;;;4989285;28;20497;-80
2021/06/23 05:41:14;;;;;;;15.40;14.10;;;12.60;99.90;;;;;;4964851;28;20062;-80
2021/06/23 05:43:41;;;;;;;19.25;13.90;;;12.50;99.90;;;;;;4991047;28;20053;-81
2021/06/23 05:46:10;;;;;;;22.23;14.25;;;12.50;99.90;;;;;;5006637;28;20038;-82
2021/06/23 05:48:37;;;;;;;29.48;15.18;;;12.50;99.90;;;;;;5008050;28;20640;-78
2021/06/23 05:51:05;;;;;;;19.23;14.70;;;12.50;99.90;;;;;;5006295;28;20151;-81
2021/06/23 05:53:33;;;;;;;23.25;15.13;;;12.60;99.90;;;;;;4994945;28;20053;-79
2021/06/23 05:56:00;;;;;;;20.70;14.82;;;12.60;99.90;;;;;;4979159;28;20101;-79
2021/06/23 05:58:27;;;;;;;20.27;14.45;;;12.80;99.90;;;;;;4992249;28;20046;-81
2021/06/23 06:00:54;;;;;;;16.85;13.48;;;12.80;99.90;;;;;;4991504;28;20608;-83
2021/06/23 06:03:21;;;;;;;20.58;15.90;;;12.90;99.90;;;;;;4960135;28;20047;-82
2021/06/23 06:05:48;;;;;;;19.52;14.10;;;12.80;99.90;;;;;;4997157;28;20067;-82
2021/06/23 06:08:15;;;;;;;15.65;13.80;;;12.70;99.90;;;;;;4999617;28;20540;-80
2021/06/23 06:10:42;;;;;;;21.35;14.35;;;12.90;99.90;;;;;;4988219;28;20043;-80
2021/06/23 06:13:08;;;;;;;18.40;14.63;;;12.80;99.90;;;;;;4987101;28;20521;-81
2021/06/23 06:15:35;;;;;;;18.55;14.15;;;12.90;99.90;;;;;;4989071;28;20047;-79
2021/06/23 06:18:04;;;;;;;20.00;13.93;;;13.10;99.90;;;;;;5006105;28;20133;-80
2021/06/23 06:20:32;;;;;;;23.73;14.77;;;13.10;99.90;;;;;;4994200;28;20073;-82
2021/06/23 06:23:00;;;;;;;18.13;14.40;;;13.20;99.90;;;;;;4995435;28;20045;-80
2021/06/23 06:25:27;;;;;;;17.55;14.55;;;13.20;99.90;;;;;;5012945;28;20049;-81
2021/06/23 06:27:54;;;;;;;17.90;13.93;;;13.10;99.90;;;;;;4986941;28;20047;-81
2021/06/23 06:30:23;;;;;;;22.63;15.10;;;13.20;99.90;;;;;;4975052;28;20662;-80
2021/06/23 06:32:50;;;;;;;18.48;14.50;;;13.20;99.90;;;;;;4993060;28;20509;-80
2021/06/23 06:35:18;;;;;;;19.35;14.23;;;13.40;99.90;;;;;;4979140;28;20072;-81
2021/06/23 06:37:45;;;;;;;16.15;14.00;;;13.50;99.90;;;;;;4995038;28;20048;-82
2021/06/23 06:40:12;;;;;;;20.52;15.68;;;13.30;99.90;;;;;;5009754;28;20053;-81
2021/06/23 06:42:39;;;;;;;19.00;16.70;;;13.30;99.90;;;;;;4979141;28;20056;-81
2021/06/23 06:45:07;;;;;;;17.52;14.68;;;13.40;99.90;;;;;;5009564;28;20038;-78
2021/06/23 06:47:34;;;;;;;17.15;15.25;;;13.40;99.90;;;;;;5027796;28;20056;-80
2021/06/23 06:50:01;;;;;;;21.73;14.98;;;13.30;99.90;;;;;;5010444;28;20049;-80
2021/06/23 06:52:28;;;;;;;25.65;15.05;;;13.30;99.90;;;;;;4997910;28;20038;-79
2021/06/23 06:54:54;;;;;;;21.77;14.93;;;13.20;99.90;;;;;;4990501;28;20116;-80
2021/06/23 06:57:21;;;;;;;18.80;15.13;;;13.20;99.90;;;;;;4990687;28;20042;-79
2021/06/23 06:59:48;;;;;;;21.42;15.23;;;13.30;99.90;;;;;;4970363;28;20053;-80
2021/06/23 07:02:15;;;;;;;20.83;14.63;;;13.30;99.90;;;;;;5004427;28;20046;-81
2021/06/23 07:04:42;;;;;;;21.85;15.60;;;13.40;99.90;;;;;;4961282;28;20053;-81
2021/06/23 07:07:09;;;;;;;23.13;15.00;;;13.40;99.90;;;;;;4992546;28;20072;-82
2021/06/23 07:09:36;;;;;;;18.40;14.02;;;13.20;99.90;;;;;;5011494;28;20046;-81
2021/06/23 07:12:03;;;;;;;20.88;14.75;;;13.20;99.90;;;;;;4964116;28;20048;-80
2021/06/23 07:14:30;;;;;;;20.00;14.90;;;13.10;99.90;;;;;;4963420;28;20062;-79
2021/06/23 07:16:57;;;;;;;23.17;15.13;;;13.20;99.90;;;;;;5020152;28;20049;-81
2021/06/23 07:19:24;;;;;;;20.17;15.40;;;13.20;99.90;;;;;;5009896;28;20043;-79
2021/06/23 07:21:51;;;;;;;15.98;14.18;;;13.20;99.90;;;;;;5016383;28;20041;-81
2021/06/23 07:24:19;;;;;;;20.20;13.82;;;13.40;99.90;;;;;;4995469;28;20092;-79
2021/06/23 07:26:48;;;;;;;17.63;14.48;;;13.30;99.90;;;;;;5005976;28;20046;-77
2021/06/23 07:29:18;;;;;;;16.73;14.27;;;13.40;99.90;;;;;;4994278;28;20036;-79
2021/06/23 07:37:06;;;;;;;19.73;14.93;;;13.00;99.90;;;;;;4994359;28;20068;-80
2021/06/23 07:39:35;;;;;;;20.67;14.18;;;12.90;99.90;;;;;;4981558;28;20049;-81
2021/06/23 07:42:04;;;;;;;17.55;14.40;;;13.00;99.90;;;;;;4994928;28;20180;-80
2021/06/23 07:45:05;;;;;;;16.10;14.60;;;13.20;99.90;;;;;;4996614;28;20076;-79
2021/06/23 07:47:27;;;;;;;15.52;13.95;;;13.40;99.90;;;;;;4995485;28;20056;-79
2021/06/23 07:49:56;;;;;;;16.45;14.35;;;13.70;99.90;;;;;;5015842;28;20045;-81
2021/06/23 08:13:13;;;;;;;18.23;14.18;;;13.60;99.90;;;;;;5012086;28;20068;-82
2021/06/23 08:15:42;;;;;;;20.90;14.63;;;13.90;99.90;;;;;;4994943;28;20049;-82
2021/06/23 08:18:09;;;;;;;20.73;13.77;;;14.30;99.90;;;;;;5030156;28;20096;-80
2021/06/23 08:20:37;;;;;;;16.48;14.85;;;14.60;99.90;;;;;;5024973;28;20057;-79
2021/06/23 08:23:04;;;;;;;19.60;15.57;;;14.80;99.90;;;;;;5030080;28;20042;-80
2021/06/23 08:25:31;;;;;;;18.70;14.82;;;14.80;99.90;;;;;;5033733;28;20037;-81
2021/06/23 08:27:58;;;;;;;18.08;15.85;;;14.70;99.90;;;;;;5037701;28;20054;-82
2021/06/23 08:30:25;;;;;;;17.70;15.48;;;14.80;99.90;;;;;;5020883;28;20045;-81
2021/06/23 08:32:55;;;;;;;23.92;16.80;;;14.80;99.90;;;;;;5014438;28;20361;-82
2021/06/23 08:35:22;;;;;;;21.73;16.00;;;14.70;99.90;;;;;;5012693;28;20069;-80
2021/06/23 08:37:49;;;;;;;16.80;15.35;;;15.00;99.90;;;;;;5001193;28;20096;-82
2021/06/23 08:40:17;;;;;;;18.90;16.77;;;15.30;99.90;;;;;;5014663;28;20042;-82
2021/06/23 08:42:44;;;;;;;22.17;17.55;;;15.50;99.90;;;;;;4982457;28;20585;-82
2021/06/23 08:45:12;;;;;;;19.85;17.13;;;15.50;99.90;;;;;;4981175;28;20049;-81
2021/06/23 08:47:45;;;;;;;21.33;15.95;;;15.60;99.90;;;;;;4998143;28;20157;-82
2021/06/23 08:50:15;;;;;;;17.35;15.70;;;15.40;99.90;;;;;;5014224;28;20049;-81
2021/06/23 08:52:42;;;;;;;17.15;15.68;;;15.40;99.90;;;;;;5010568;23;20045;-72
2021/06/23 08:55:10;;;;;;;20.63;17.40;;;15.50;99.90;;;;;;4986571;28;20053;-71
2021/06/23 08:57:37;;;;;;;18.60;16.35;;;15.40;99.90;;;;;;4970715;28;20059;-73
2021/06/23 09:00:07;;;;;;;17.08;15.57;;;15.00;99.90;;;;;;4982203;28;20073;-74
2021/06/23 09:02:34;;;;;;;19.33;16.42;;;14.70;99.90;;;;;;4965616;28;20078;-73
2021/06/23 09:05:01;;;;;;;17.45;15.65;;;14.80;99.90;;;;;;4968605;28;20109;-74
2021/06/23 09:07:38;;;;;;;18.48;16.05;;;14.70;99.90;;;;;;4983788;28;20062;-74
2021/06/23 09:10:26;;;;;;;17.40;15.50;;;14.70;99.90;;;;;;4977671;28;20046;-73
2021/06/23 09:13:08;;;;;;;19.98;15.88;;;14.80;99.90;;;;;;4966256;28;20058;-73
2021/06/23 09:15:45;;;;;;;19.08;16.00;;;15.10;99.90;;;;;;4984893;28;20046;-74
2021/06/23 09:18:14;;;;;;;16.40;14.95;;;15.20;99.90;;;;;;4985804;28;20050;-73
2021/06/23 09:20:42;;;;;;;19.60;15.75;;;14.90;99.90;;;;;;4985158;28;20054;-72
2021/06/23 09:23:10;;;;;;;20.48;15.98;;;14.70;99.90;;;;;;4976422;28;20050;-74
2021/06/23 09:25:38;;;;;;;17.55;15.70;;;14.90;99.90;;;;;;4973399;28;20054;-74
2021/06/23 09:28:13;;;;;;;18.27;16.38;;;14.90;99.90;;;;;;4960776;28;20066;-72
2021/06/23 09:30:46;;;;;;;16.98;15.55;;;14.70;99.90;;;;;;4951901;28;20054;-74
2021/06/23 09:33:21;;;;;;;23.25;15.55;;;14.90;99.90;;;;;;4983852;28;20125;-74
2021/06/23 09:35:59;;;;;;;22.38;16.42;;;15.00;99.90;;;;;;4984092;28;20487;-74
2021/06/23 09:38:47;;;;;;;18.88;17.05;;;14.80;99.90;;;;;;4985055;28;20093;-73
2021/06/23 09:41:19;;;;;;;17.50;15.60;;;14.70;99.90;;;;;;4985236;28;20057;-73
2021/06/23 09:44:06;;;;;;;18.95;15.13;;;14.70;99.90;;;;;;4972154;28;20050;-74
2021/06/23 09:46:35;;;;;;;20.20;15.50;;;14.80;99.90;;;;;;4961080;28;20054;-75
2021/06/23 09:49:13;;;;;;;20.13;15.20;;;14.80;99.90;;;;;;4994590;28;20535;-74
2021/06/23 09:51:43;;;;;;;18.52;14.60;;;14.70;99.90;;;;;;4970649;28;20133;-73
2021/06/23 09:54:11;;;;;;;20.42;15.75;;;14.80;99.90;;;;;;4951614;28;20049;-72
2021/06/23 09:57:08;;;;;;;28.70;16.23;;;14.90;99.90;;;;;;4969859;28;20121;-75
2021/06/23 09:59:41;;;;;;;18.60;16.25;;;14.80;99.90;;;;;;4967223;28;20472;-74
2021/06/23 10:02:25;;;;;;;21.33;15.00;;;14.90;99.90;;;;;;4950079;28;20080;-74
2021/06/23 10:04:53;;;;;;;19.17;15.38;;;15.20;99.90;;;;;;4952223;28;20089;-73
2021/06/23 10:07:48;;;;;;;17.73;14.60;;;15.10;99.90;;;;;;4984496;28;20055;-72
2021/06/23 10:10:17;;;;;;;;;;;15.10;99.90;;;;;;4982015;28;20054;-75
2021/06/23 10:12:46;;;;;;;20.52;15.27;;;15.20;99.90;;;;;;5001018;28;19944;-75
2021/06/23 10:15:13;;;;;;;17.35;15.70;;;15.20;99.90;;;;;;4967197;28;20142;-72
2021/06/23 10:17:42;;;;;;;19.75;15.82;;;15.10;99.90;;;;;;4984308;28;20390;-74
2021/06/23 10:20:10;;;;;;;20.48;15.70;;;15.20;99.90;;;;;;4982102;28;20045;-74
2021/06/23 10:22:39;;;;;;;17.13;15.18;;;15.20;99.90;;;;;;5004399;28;20129;-75
2021/06/23 10:25:09;;;;;;;20.83;15.10;;;15.10;99.90;;;;;;5002695;28;20064;-72
2021/06/23 10:27:40;;;;;;;17.00;15.30;;;15.40;99.90;;;;;;4986646;28;20046;-72
2021/06/23 10:30:08;;;;;;;19.30;15.02;;;15.80;99.90;;;;;;4985989;28;20049;-74
2021/06/23 10:32:36;;;;;;;20.38;15.48;;;16.20;99.90;;;;;;5002562;28;20100;-73
2021/06/23 10:35:05;;;;;;;17.15;14.88;;;15.90;99.90;;;;;;5003454;28;20265;-74
2021/06/23 10:37:36;;;;;;;21.73;15.93;;;16.40;99.90;;;;;;4950764;28;20046;-73
2021/06/23 10:40:06;;;;;;;18.63;15.90;;;16.60;99.90;;;;;;4981850;28;20042;-74
2021/06/23 10:42:33;;;;;;;22.67;15.50;;;16.80;99.90;;;;;;4995696;28;20045;-73
2021/06/23 10:45:01;;;;;;;17.38;15.57;;;17.20;99.90;;;;;;5003374;28;20042;-72
2021/06/23 10:47:38;;;;;;;22.40;15.75;;;17.50;99.90;;;;;;4966282;28;20078;-72
2021/06/23 10:50:10;;;;;;;18.60;16.77;;;17.70;99.90;;;;;;4955398;28;20054;-72
2021/06/23 10:52:42;;;;;;;18.48;16.70;;;17.70;99.90;;;;;;4965044;28;20042;-72
2021/06/23 10:55:21;;;;;;;19.00;17.02;;;17.50;99.90;;;;;;4980639;28;20046;-72
2021/06/23 10:57:51;;;;;;;18.05;16.63;;;17.70;99.90;;;;;;4981814;28;20382;-72
2021/06/23 11:00:17;;;;;;;20.30;18.23;;;17.60;99.90;;;;;;4961913;28;20046;-73
2021/06/23 11:02:50;;;;;;;19.38;16.23;;;17.10;99.90;;;;;;4946726;28;20058;-70
2021/06/23 11:05:18;;;;;;;19.60;16.15;;;16.90;99.90;;;;;;4981996;28;20600;-71
2021/06/23 11:07:55;;;;;;;18.60;16.58;;;17.20;99.90;;;;;;4981616;28;20154;-72
2021/06/23 11:10:31;;;;;;;19.50;16.42;;;17.40;99.90;;;;;;4977731;28;20296;-73
2021/06/23 11:13:02;;;;;;;18.92;16.80;;;17.60;99.90;;;;;;4981504;28;20194;-73
2021/06/23 11:15:32;;;;;;;17.25;15.73;;;17.20;99.90;;;;;;4968712;28;20130;-73
2021/06/23 11:18:16;;;;;;;18.75;16.77;;;17.20;99.90;;;;;;4969926;28;20420;-73
2021/06/23 11:20:57;;;;;;;21.02;17.38;;;17.40;99.90;;;;;;4986387;28;20464;-71
2021/06/23 11:23:40;;;;;;;18.88;16.90;;;17.60;99.90;;;;;;4980786;28;20401;-74
2021/06/23 11:26:08;;;;;;;18.77;17.02;;;17.70;99.90;;;;;;4987103;28;20582;-72
2021/06/23 11:28:36;;;;;;;20.08;18.08;;;17.60;99.90;;;;;;4949583;28;20062;-71
2021/06/23 11:31:06;;;;;;;19.15;17.15;;;17.40;99.90;;;;;;4964211;28;20046;-71
2021/06/23 11:33:39;;;;;;;19.77;17.65;;;17.40;99.90;;;;;;4957089;28;20120;-73
2021/06/23 11:36:15;;;;;;;19.65;17.92;;;17.40;99.90;;;;;;4992249;28;20034;-73
2021/06/23 11:38:42;;;;;;;19.55;17.58;;;17.40;99.90;;;;;;4945765;28;20042;-71
2021/06/23 11:41:10;;;;;;;22.45;17.73;;;16.80;99.90;;;;;;4969358;28;20125;-73
2021/06/23 11:43:37;;;;;;;19.10;17.30;;;16.60;99.90;;;;;;4980291;28;20112;-73
2021/06/23 11:46:05;;;;;;;19.80;17.83;;;16.90;99.90;;;;;;4991494;28;20145;-73
2021/06/23 11:48:32;;;;;;;20.10;18.23;;;17.20;99.90;;;;;;4982692;28;20137;-73
2021/06/23 11:50:59;;;;;;;17.85;16.10;;;17.60;99.90;;;;;;4979308;28;20050;-72
2021/06/23 11:53:26;;;;;;;20.92;17.63;;;17.80;99.90;;;;;;4962806;28;20077;-72
2021/06/23 11:55:53;;;;;;;23.17;16.95;;;17.70;99.90;;;;;;4980695;28;20061;-72
2021/06/23 11:58:20;;;;;;;22.35;17.73;;;18.00;99.90;;;;;;4977182;28;20412;-72
2021/06/23 12:00:47;;;;;;;19.25;17.38;;;18.10;99.90;;;;;;4981180;28;20069;-69
2021/06/23 12:03:17;;;;;;;19.05;17.23;;;17.90;99.90;;;;;;4984037;28;20052;-73
2021/06/23 12:05:49;;;;;;;20.30;17.23;;;17.50;99.90;;;;;;4963944;28;20473;-73
2021/06/23 12:08:16;;;;;;;19.85;16.63;;;17.50;99.90;;;;;;4964234;28;20157;-72
2021/06/23 12:10:45;;;;;;;23.25;16.80;;;17.60;99.90;;;;;;4963591;28;20049;-71
2021/06/23 12:13:13;;;;;;;17.95;16.35;;;18.00;99.90;;;;;;4983063;28;20053;-73
2021/06/23 12:15:42;;;;;;;21.75;17.73;;;18.40;99.90;;;;;;4964105;28;20106;-72
2021/06/23 12:18:10;;;;;;;19.35;16.63;;;18.70;99.90;;;;;;4965929;28;20109;-76
2021/06/23 12:20:39;;;;;;;19.35;16.98;;;19.00;99.90;;;;;;4979156;28;20107;-75
2021/06/23 12:23:09;;;;;;;18.92;17.05;;;18.80;99.90;;;;;;4977828;28;20157;-73
2021/06/23 12:25:42;;;;;;;18.45;16.65;;;18.90;99.90;;;;;;4980375;28;20049;-73
2021/06/23 12:28:11;;;;;;;17.40;15.77;;;18.80;99.90;;;;;;4985742;28;20047;-72
2021/06/23 12:30:39;;;;;;;21.88;16.67;;;18.90;99.90;;;;;;5000264;28;20058;-73
2021/06/23 12:33:10;;;;;;;23.65;18.08;;;18.80;99.90;;;;;;4952104;28;20042;-72
2021/06/23 12:35:38;;;;;;;19.58;17.45;;;18.80;99.90;;;;;;5001270;28;20168;-71
2021/06/23 12:38:06;;;;;;;18.02;16.52;;;18.70;99.90;;;;;;4964492;28;20047;-72
2021/06/23 12:40:33;;;;;;;23.70;17.70;;;18.70;99.90;;;;;;4964241;28;20057;-73
2021/06/23 12:43:01;;;;;;;18.95;16.92;;;18.60;99.90;;;;;;4965489;28;20132;-73
2021/06/23 12:45:28;;;;;;;18.90;17.00;;;18.70;99.90;;;;;;4986477;28;20111;-72
2021/06/23 12:47:55;;;;;;;22.77;18.00;;;18.70;99.90;;;;;;5011108;28;20096;-72
2021/06/23 12:50:26;;;;;;;19.23;17.63;;;18.50;99.90;;;;;;4966811;28;20332;-72
2021/06/23 12:52:53;;;;;;;18.40;16.50;;;18.50;99.90;;;;;;4984496;28;20133;-72
2021/06/23 12:55:20;;;;;;;20.60;17.92;;;18.50;99.90;;;;;;4967827;28;20042;-72
2021/06/23 12:57:47;;;;;;;22.25;18.67;;;18.20;99.90;;;;;;4997762;28;20136;-72
2021/06/23 13:00:15;;;;;;;19.17;17.73;;;18.10;99.90;;;;;;4999949;28;20046;-72
2021/06/23 13:02:46;;;;;;;20.33;17.88;;;17.80;99.90;;;;;;5002250;28;20046;-73
2021/06/23 13:05:14;;;;;;;19.70;18.17;;;18.10;99.90;;;;;;4993655;28;20060;-72
2021/06/23 13:07:43;;;;;;;20.77;17.33;;;18.30;99.90;;;;;;4986415;28;20210;-73
2021/06/23 13:10:12;;;;;;;20.40;18.20;;;18.50;99.90;;;;;;4967674;28;20047;-76
2021/06/23 13:12:39;;;;;;;20.20;17.60;;;18.50;99.90;;;;;;4986023;28;20640;-75